THY9904 LTFJ-LTFM
Flight info
| Callsign | THY9904 |
|---|---|
| Flight time | 0h 46m |
| Altitude | 5000 |
| Route | DCT SBH DCT IST DCT |
| Aircraft | C172/L-SD/C |
Departure
| Time | 2026-02-21 07:03 |
|---|---|
| Airport | Istanbul Sabiha Gökçen International Airport (LTFJ) |
Arrival
| Time | 2026-02-21 07:49 |
|---|---|
| Airport | İstanbul Airport (LTFM) |
| Time | Latitude | Longitude | Altitude | Speed | Heading |
|---|---|---|---|---|---|
| 2026-02-21 06:38 | 40.90637 | 29.32472 | 308 ft | 0 kts | 63° |
| 2026-02-21 06:50 | 40.90634 | 29.32464 | 308 ft | 1 kts | 63° |
| 2026-02-21 06:50 | 40.90630 | 29.32455 | 308 ft | 1 kts | 74° |
| 2026-02-21 06:51 | 40.90631 | 29.32444 | 308 ft | 1 kts | 110° |
| 2026-02-21 06:51 | 40.90636 | 29.32435 | 308 ft | 1 kts | 146° |
| 2026-02-21 06:51 | 40.90643 | 29.32432 | 308 ft | 1 kts | 181° |
| 2026-02-21 06:51 | 40.90644 | 29.32432 | 308 ft | 0 kts | 184° |
| 2026-02-21 06:59 | 40.90640 | 29.32432 | 308 ft | 1 kts | 187° |
| 2026-02-21 07:00 | 40.90599 | 29.32418 | 308 ft | 11 kts | 178° |
| 2026-02-21 07:00 | 40.90514 | 29.32466 | 307 ft | 8 kts | 154° |
| 2026-02-21 07:00 | 40.90509 | 29.32469 | 307 ft | 0 kts | 152° |
| 2026-02-21 07:01 | 40.90509 | 29.32470 | 307 ft | 0 kts | 151° |
| 2026-02-21 07:01 | 40.90473 | 29.32483 | 306 ft | 11 kts | 165° |
| 2026-02-21 07:01 | 40.90417 | 29.32444 | 305 ft | 10 kts | 244° |
| 2026-02-21 07:01 | 40.90349 | 29.32260 | 305 ft | 44 kts | 243° |
| 2026-02-21 07:02 | 40.90139 | 29.31717 | 329 ft | 82 kts | 240° |
| 2026-02-21 07:02 | 40.89861 | 29.30981 | 471 ft | 94 kts | 244° |
| 2026-02-21 07:02 | 40.89573 | 29.30154 | 636 ft | 101 kts | 242° |
| 2026-02-21 07:02 | 40.89260 | 29.29404 | 884 ft | 93 kts | 235° |
| 2026-02-21 07:03 | 40.88914 | 29.28685 | 1028 ft | 93 kts | 239° |
| 2026-02-21 07:03 | 40.88602 | 29.27910 | 1142 ft | 96 kts | 242° |
| 2026-02-21 07:03 | 40.88294 | 29.27132 | 1312 ft | 94 kts | 241° |
| 2026-02-21 07:03 | 40.87976 | 29.26390 | 1470 ft | 92 kts | 237° |
| 2026-02-21 07:04 | 40.87642 | 29.25673 | 1594 ft | 95 kts | 234° |
| 2026-02-21 07:04 | 40.87269 | 29.24910 | 1678 ft | 103 kts | 234° |
| 2026-02-21 07:04 | 40.86872 | 29.24124 | 1758 ft | 101 kts | 233° |
| 2026-02-21 07:04 | 40.86446 | 29.23404 | 1838 ft | 98 kts | 227° |
| 2026-02-21 07:05 | 40.86047 | 29.22687 | 1911 ft | 96 kts | 232° |
| 2026-02-21 07:05 | 40.85666 | 29.21978 | 1987 ft | 94 kts | 232° |
| 2026-02-21 07:05 | 40.85273 | 29.21252 | 1991 ft | 100 kts | 232° |
| 2026-02-21 07:05 | 40.85044 | 29.20401 | 1998 ft | 105 kts | 280° |
| 2026-02-21 07:06 | 40.85291 | 29.19469 | 2002 ft | 109 kts | 288° |
| 2026-02-21 07:06 | 40.85538 | 29.18530 | 1999 ft | 107 kts | 288° |
| 2026-02-21 07:06 | 40.85788 | 29.17605 | 1997 ft | 106 kts | 288° |
| 2026-02-21 07:06 | 40.86032 | 29.16684 | 1997 ft | 106 kts | 288° |
| 2026-02-21 07:07 | 40.86277 | 29.15766 | 2002 ft | 106 kts | 288° |
| 2026-02-21 07:07 | 40.86518 | 29.14850 | 2000 ft | 105 kts | 288° |
| 2026-02-21 07:07 | 40.86755 | 29.13947 | 1998 ft | 106 kts | 288° |
| 2026-02-21 07:07 | 40.87013 | 29.12984 | 2003 ft | 119 kts | 289° |
| 2026-02-21 07:08 | 40.87296 | 29.11928 | 1984 ft | 122 kts | 288° |
| 2026-02-21 07:08 | 40.87563 | 29.10913 | 1983 ft | 113 kts | 288° |
| 2026-02-21 07:08 | 40.87815 | 29.09955 | 1995 ft | 109 kts | 288° |
| 2026-02-21 07:08 | 40.88075 | 29.08957 | 1986 ft | 118 kts | 288° |
| 2026-02-21 07:09 | 40.88333 | 29.07967 | 1979 ft | 111 kts | 288° |
| 2026-02-21 07:09 | 40.88578 | 29.07026 | 1977 ft | 107 kts | 288° |
| 2026-02-21 07:09 | 40.88817 | 29.06114 | 1980 ft | 104 kts | 288° |
| 2026-02-21 07:09 | 40.89062 | 29.05228 | 1982 ft | 102 kts | 291° |
| 2026-02-21 07:10 | 40.89327 | 29.04365 | 1982 ft | 101 kts | 290° |
| 2026-02-21 07:10 | 40.89589 | 29.03515 | 1981 ft | 99 kts | 291° |
| 2026-02-21 07:10 | 40.89848 | 29.02674 | 1986 ft | 98 kts | 291° |
| 2026-02-21 07:10 | 40.90102 | 29.01843 | 1986 ft | 97 kts | 291° |
| 2026-02-21 07:11 | 40.90357 | 29.01010 | 1985 ft | 98 kts | 291° |
| 2026-02-21 07:11 | 40.90615 | 29.00176 | 1991 ft | 101 kts | 291° |
| 2026-02-21 07:11 | 40.90879 | 28.99311 | 1992 ft | 102 kts | 290° |
| 2026-02-21 07:11 | 40.91149 | 28.98436 | 1998 ft | 103 kts | 291° |
| 2026-02-21 07:12 | 40.91418 | 28.97564 | 1997 ft | 102 kts | 291° |
| 2026-02-21 07:12 | 40.91685 | 28.96700 | 1995 ft | 101 kts | 291° |
| 2026-02-21 07:12 | 40.91948 | 28.95842 | 1995 ft | 100 kts | 290° |
| 2026-02-21 07:12 | 40.92212 | 28.94990 | 1992 ft | 100 kts | 291° |
| 2026-02-21 07:13 | 40.92459 | 28.94133 | 1992 ft | 99 kts | 288° |
| 2026-02-21 07:13 | 40.92686 | 28.93273 | 1989 ft | 99 kts | 288° |
| 2026-02-21 07:13 | 40.92916 | 28.92409 | 1987 ft | 100 kts | 288° |
| 2026-02-21 07:13 | 40.93149 | 28.91545 | 1990 ft | 100 kts | 288° |
| 2026-02-21 07:14 | 40.93381 | 28.90680 | 1987 ft | 99 kts | 287° |
| 2026-02-21 07:14 | 40.93613 | 28.89830 | 1988 ft | 97 kts | 287° |
| 2026-02-21 07:14 | 40.93840 | 28.89000 | 1985 ft | 97 kts | 288° |
| 2026-02-21 07:14 | 40.94070 | 28.88161 | 1985 ft | 97 kts | 288° |
| 2026-02-21 07:15 | 40.94304 | 28.87322 | 1986 ft | 97 kts | 288° |
| 2026-02-21 07:15 | 40.94537 | 28.86481 | 1989 ft | 97 kts | 289° |
| 2026-02-21 07:15 | 40.94769 | 28.85639 | 1989 ft | 98 kts | 289° |
| 2026-02-21 07:15 | 40.95005 | 28.84797 | 1986 ft | 97 kts | 288° |
| 2026-02-21 07:16 | 40.95238 | 28.83957 | 1983 ft | 97 kts | 288° |
| 2026-02-21 07:16 | 40.95468 | 28.83115 | 1990 ft | 97 kts | 288° |
| 2026-02-21 07:16 | 40.95706 | 28.82251 | 1998 ft | 101 kts | 288° |
| 2026-02-21 07:16 | 40.95946 | 28.81356 | 2007 ft | 108 kts | 288° |
| 2026-02-21 07:17 | 40.96450 | 28.80660 | 2005 ft | 110 kts | 347° |
| 2026-02-21 07:17 | 40.97192 | 28.80526 | 2005 ft | 109 kts | 353° |
| 2026-02-21 07:17 | 40.97944 | 28.80378 | 2001 ft | 110 kts | 353° |
| 2026-02-21 07:17 | 40.98711 | 28.80228 | 1996 ft | 110 kts | 352° |
| 2026-02-21 07:18 | 40.99436 | 28.80090 | 1986 ft | 104 kts | 353° |
| 2026-02-21 07:18 | 41.00141 | 28.79966 | 1985 ft | 102 kts | 354° |
| 2026-02-21 07:18 | 41.00860 | 28.79847 | 1985 ft | 105 kts | 354° |
| 2026-02-21 07:18 | 41.01585 | 28.79722 | 1985 ft | 104 kts | 354° |
| 2026-02-21 07:19 | 41.02298 | 28.79598 | 1992 ft | 104 kts | 354° |
| 2026-02-21 07:19 | 41.03017 | 28.79477 | 1984 ft | 105 kts | 354° |
| 2026-02-21 07:19 | 41.03503 | 28.79393 | 1975 ft | 106 kts | 354° |
| 2026-02-21 07:19 | 41.04233 | 28.79272 | 1972 ft | 105 kts | 354° |
| 2026-02-21 07:20 | 41.04945 | 28.79137 | 1963 ft | 103 kts | 354° |
| 2026-02-21 07:20 | 41.05650 | 28.79018 | 1960 ft | 101 kts | 1° |
| 2026-02-21 07:20 | 41.06165 | 28.79483 | 1972 ft | 92 kts | 80° |
| 2026-02-21 07:20 | 41.06276 | 28.80314 | 1967 ft | 93 kts | 86° |
| 2026-02-21 07:21 | 41.06065 | 28.81042 | 1975 ft | 88 kts | 151° |
| 2026-02-21 07:21 | 41.05453 | 28.81159 | 1971 ft | 91 kts | 174° |
| 2026-02-21 07:21 | 41.04829 | 28.81258 | 1973 ft | 91 kts | 173° |
| 2026-02-21 07:21 | 41.04199 | 28.81354 | 1973 ft | 91 kts | 173° |
| 2026-02-21 07:22 | 41.03568 | 28.81450 | 1976 ft | 91 kts | 173° |
| 2026-02-21 07:22 | 41.02944 | 28.81549 | 1963 ft | 89 kts | 173° |
| 2026-02-21 07:22 | 41.02334 | 28.81652 | 1951 ft | 90 kts | 172° |
| 2026-02-21 07:22 | 41.01728 | 28.81557 | 1912 ft | 95 kts | 216° |
| 2026-02-21 07:23 | 41.01526 | 28.80726 | 1871 ft | 102 kts | 274° |
| 2026-02-21 07:23 | 41.01995 | 28.80049 | 1841 ft | 109 kts | 348° |
| 2026-02-21 07:23 | 41.02748 | 28.79917 | 1800 ft | 110 kts | 353° |
| 2026-02-21 07:23 | 41.03512 | 28.79784 | 1743 ft | 112 kts | 354° |
| 2026-02-21 07:24 | 41.04296 | 28.79638 | 1652 ft | 114 kts | 354° |
| 2026-02-21 07:24 | 41.05078 | 28.79501 | 1551 ft | 113 kts | 354° |
| 2026-02-21 07:24 | 41.05860 | 28.79364 | 1454 ft | 113 kts | 354° |
| 2026-02-21 07:24 | 41.06642 | 28.79225 | 1352 ft | 113 kts | 354° |
| 2026-02-21 07:25 | 41.07417 | 28.79088 | 1254 ft | 113 kts | 354° |
| 2026-02-21 07:25 | 41.08183 | 28.78955 | 1149 ft | 109 kts | 354° |
| 2026-02-21 07:25 | 41.08923 | 28.78828 | 1040 ft | 105 kts | 354° |
| 2026-02-21 07:25 | 41.09635 | 28.78711 | 969 ft | 99 kts | 354° |
| 2026-02-21 07:26 | 41.10292 | 28.78609 | 960 ft | 92 kts | 354° |
| 2026-02-21 07:26 | 41.10911 | 28.78507 | 962 ft | 86 kts | 354° |
| 2026-02-21 07:26 | 41.11492 | 28.78403 | 962 ft | 84 kts | 354° |
| 2026-02-21 07:26 | 41.12054 | 28.78302 | 959 ft | 80 kts | 353° |
| 2026-02-21 07:27 | 41.12604 | 28.78218 | 960 ft | 79 kts | 354° |
| 2026-02-21 07:27 | 41.13123 | 28.78150 | 1034 ft | 71 kts | 354° |
| 2026-02-21 07:27 | 41.13615 | 28.78085 | 1107 ft | 76 kts | 353° |
| 2026-02-21 07:27 | 41.14187 | 28.77998 | 1208 ft | 89 kts | 354° |
| 2026-02-21 07:28 | 41.14840 | 28.77889 | 1319 ft | 99 kts | 354° |
| 2026-02-21 07:28 | 41.15547 | 28.77753 | 1414 ft | 106 kts | 353° |
| 2026-02-21 07:28 | 41.16283 | 28.77606 | 1495 ft | 112 kts | 354° |
| 2026-02-21 07:28 | 41.17086 | 28.77447 | 1480 ft | 119 kts | 354° |
| 2026-02-21 07:29 | 41.17918 | 28.77284 | 1474 ft | 121 kts | 354° |
| 2026-02-21 07:29 | 41.18739 | 28.77125 | 1475 ft | 118 kts | 354° |
| 2026-02-21 07:29 | 41.19542 | 28.76968 | 1469 ft | 113 kts | 354° |
| 2026-02-21 07:29 | 41.20300 | 28.76815 | 1465 ft | 110 kts | 354° |
| 2026-02-21 07:30 | 41.21053 | 28.76664 | 1456 ft | 107 kts | 354° |
| 2026-02-21 07:30 | 41.21778 | 28.76732 | 1459 ft | 105 kts | 19° |
| 2026-02-21 07:30 | 41.22479 | 28.77017 | 1459 ft | 105 kts | 20° |
| 2026-02-21 07:30 | 41.23197 | 28.77196 | 1463 ft | 104 kts | 12° |
| 2026-02-21 07:31 | 41.23922 | 28.77332 | 1463 ft | 105 kts | 11° |
| 2026-02-21 07:31 | 41.24650 | 28.77475 | 1466 ft | 106 kts | 12° |
| 2026-02-21 07:31 | 41.25387 | 28.77619 | 1469 ft | 108 kts | 13° |
| 2026-02-21 07:31 | 41.26139 | 28.77732 | 1468 ft | 110 kts | 6° |
| 2026-02-21 07:32 | 41.26902 | 28.77753 | 1469 ft | 109 kts | 6° |
| 2026-02-21 07:32 | 41.27150 | 28.77759 | 1468 ft | 109 kts | 5° |
| 2026-02-21 07:32 | 41.27405 | 28.77765 | 1471 ft | 109 kts | 5° |
| 2026-02-21 07:33 | 41.30483 | 28.78628 | 1474 ft | 100 kts | 61° |
| 2026-02-21 07:33 | 41.30746 | 28.79468 | 1466 ft | 97 kts | 90° |
| 2026-02-21 07:33 | 41.30696 | 28.80356 | 1469 ft | 96 kts | 98° |
| 2026-02-21 07:34 | 41.30517 | 28.81192 | 1472 ft | 94 kts | 112° |
| 2026-02-21 07:34 | 41.30248 | 28.81986 | 1474 ft | 94 kts | 132° |
| 2026-02-21 07:34 | 41.29730 | 28.82507 | 1472 ft | 93 kts | 142° |
| 2026-02-21 07:34 | 41.29183 | 28.82946 | 1470 ft | 92 kts | 160° |
| 2026-02-21 07:35 | 41.28566 | 28.83227 | 1448 ft | 97 kts | 159° |
| 2026-02-21 07:35 | 41.27908 | 28.83445 | 1403 ft | 101 kts | 179° |
| 2026-02-21 07:35 | 41.27196 | 28.83387 | 1359 ft | 101 kts | 181° |
| 2026-02-21 07:35 | 41.26493 | 28.83340 | 1302 ft | 101 kts | 181° |
| 2026-02-21 07:36 | 41.25796 | 28.83317 | 1269 ft | 100 kts | 181° |
| 2026-02-21 07:36 | 41.25101 | 28.83298 | 1265 ft | 99 kts | 181° |
| 2026-02-21 07:36 | 41.24411 | 28.83283 | 1260 ft | 99 kts | 181° |
| 2026-02-21 07:36 | 41.23728 | 28.83271 | 1260 ft | 98 kts | 181° |
| 2026-02-21 07:37 | 41.23044 | 28.83245 | 1260 ft | 97 kts | 190° |
| 2026-02-21 07:37 | 41.22628 | 28.82634 | 1264 ft | 95 kts | 266° |
| 2026-02-21 07:37 | 41.22597 | 28.81754 | 1269 ft | 96 kts | 268° |
| 2026-02-21 07:37 | 41.22558 | 28.80864 | 1265 ft | 97 kts | 268° |
| 2026-02-21 07:38 | 41.22522 | 28.79968 | 1270 ft | 97 kts | 268° |
| 2026-02-21 07:38 | 41.22709 | 28.79157 | 1274 ft | 95 kts | 322° |
| 2026-02-21 07:38 | 41.23320 | 28.78834 | 1275 ft | 95 kts | 348° |
| 2026-02-21 07:38 | 41.23963 | 28.78615 | 1274 ft | 95 kts | 347° |
| 2026-02-21 07:39 | 41.24609 | 28.78400 | 1273 ft | 96 kts | 351° |
| 2026-02-21 07:39 | 41.25275 | 28.78325 | 1276 ft | 96 kts | 357° |
| 2026-02-21 07:39 | 41.25943 | 28.78255 | 1278 ft | 96 kts | 357° |
| 2026-02-21 07:39 | 41.26613 | 28.78188 | 1271 ft | 96 kts | 356° |
| 2026-02-21 07:40 | 41.27284 | 28.78130 | 1274 ft | 96 kts | 6° |
| 2026-02-21 07:40 | 41.27743 | 28.78655 | 1277 ft | 94 kts | 78° |
| 2026-02-21 07:40 | 41.27866 | 28.79505 | 1295 ft | 93 kts | 79° |
| 2026-02-21 07:40 | 41.28001 | 28.80375 | 1243 ft | 98 kts | 79° |
| 2026-02-21 07:41 | 41.28069 | 28.81288 | 1194 ft | 102 kts | 105° |
| 2026-02-21 07:41 | 41.27537 | 28.81839 | 1154 ft | 104 kts | 178° |
| 2026-02-21 07:41 | 41.26803 | 28.81874 | 1103 ft | 108 kts | 180° |
| 2026-02-21 07:41 | 41.26073 | 28.81945 | 1107 ft | 104 kts | 179° |
| 2026-02-21 07:42 | 41.25337 | 28.82005 | 1094 ft | 106 kts | 180° |
| 2026-02-21 07:42 | 41.24607 | 28.82061 | 1089 ft | 103 kts | 180° |
| 2026-02-21 07:42 | 41.23911 | 28.82131 | 1090 ft | 98 kts | 180° |
| 2026-02-21 07:42 | 41.23216 | 28.82193 | 1092 ft | 101 kts | 180° |
| 2026-02-21 07:43 | 41.22508 | 28.82249 | 1098 ft | 105 kts | 180° |
| 2026-02-21 07:43 | 41.21773 | 28.82302 | 1094 ft | 105 kts | 186° |
| 2026-02-21 07:43 | 41.21529 | 28.82257 | 1098 ft | 103 kts | 200° |
| 2026-02-21 07:44 | 41.21315 | 28.82127 | 1103 ft | 100 kts | 215° |
| 2026-02-21 07:44 | 41.19445 | 28.79278 | 1103 ft | 96 kts | 268° |
| 2026-02-21 07:44 | 41.19378 | 28.78404 | 1097 ft | 94 kts | 267° |
| 2026-02-21 07:45 | 41.19312 | 28.77530 | 1097 ft | 97 kts | 269° |
| 2026-02-21 07:45 | 41.19526 | 28.76746 | 1071 ft | 93 kts | 331° |
| 2026-02-21 07:45 | 41.20130 | 28.76819 | 1001 ft | 91 kts | 11° |
| 2026-02-21 07:45 | 41.20743 | 28.76690 | 850 ft | 86 kts | 341° |
| 2026-02-21 07:46 | 41.21256 | 28.76535 | 893 ft | 72 kts | 343° |
| 2026-02-21 07:46 | 41.21790 | 28.76391 | 756 ft | 77 kts | 351° |
| 2026-02-21 07:46 | 41.22261 | 28.76328 | 731 ft | 61 kts | 343° |
| 2026-02-21 07:46 | 41.22688 | 28.76406 | 687 ft | 61 kts | 356° |
| 2026-02-21 07:47 | 41.23111 | 28.76400 | 664 ft | 61 kts | 345° |
| 2026-02-21 07:47 | 41.23541 | 28.76294 | 639 ft | 66 kts | 347° |
| 2026-02-21 07:47 | 41.24013 | 28.76399 | 660 ft | 69 kts | 11° |
| 2026-02-21 07:47 | 41.24460 | 28.76430 | 680 ft | 62 kts | 327° |
| 2026-02-21 07:48 | 41.24799 | 28.76060 | 681 ft | 63 kts | 317° |
| 2026-02-21 07:48 | 41.25221 | 28.75781 | 640 ft | 74 kts | 342° |
| 2026-02-21 07:48 | 41.25734 | 28.75696 | 525 ft | 73 kts | 349° |
| 2026-02-21 07:48 | 41.26247 | 28.75670 | 354 ft | 76 kts | 353° |
| 2026-02-21 07:49 | 41.26723 | 28.75664 | 305 ft | 58 kts | 347° |
| 2026-02-21 07:49 | 41.27066 | 28.75652 | 296 ft | 40 kts | 359° |
| 2026-02-21 07:49 | 41.27305 | 28.75652 | 292 ft | 30 kts | 359° |
| 2026-02-21 07:49 | 41.27419 | 28.75613 | 288 ft | 7 kts | 267° |
| 2026-02-21 07:50 | 41.27419 | 28.75598 | 292 ft | 2 kts | 268° |
| 2026-02-21 07:50 | 41.27418 | 28.75522 | 293 ft | 9 kts | 268° |
| 2026-02-21 07:50 | 41.27417 | 28.75474 | 293 ft | 2 kts | 265° |
| 2026-02-21 07:52 | 41.27417 | 28.75473 | 293 ft | 1 kts | 272° |
| 2026-02-21 07:52 | 41.27417 | 28.75427 | 293 ft | 8 kts | 263° |
| 2026-02-21 07:52 | 41.27460 | 28.75363 | 292 ft | 12 kts | 357° |
| 2026-02-21 07:52 | 41.27535 | 28.75361 | 291 ft | 9 kts | 355° |
| 2026-02-21 07:53 | 41.27607 | 28.75361 | 287 ft | 8 kts | 346° |
| 2026-02-21 07:53 | 41.27621 | 28.75331 | 286 ft | 4 kts | 269° |
| 2026-02-21 07:53 | 41.27620 | 28.75288 | 286 ft | 5 kts | 268° |
| 2026-02-21 07:53 | 41.27619 | 28.75236 | 288 ft | 4 kts | 269° |
| 2026-02-21 07:54 | 41.27619 | 28.75202 | 291 ft | 7 kts | 269° |
| 2026-02-21 07:54 | 41.27607 | 28.75143 | 291 ft | 7 kts | 193° |
| 2026-02-21 07:54 | 41.27568 | 28.75143 | 294 ft | 6 kts | 171° |
| 2026-02-21 07:54 | 41.27559 | 28.75142 | 295 ft | 0 kts | 184° |
| 2026-02-21 07:55 | 41.27555 | 28.75142 | 294 ft | 0 kts | 180° |